• Join FlightAware (Why Join?)
  • Login
  • US Flag 
07:11PM EST


 

Airport Tracker/Info


-or-


 

Live Flight TrackerFlight Track Log ✈ ASQ6115 ✈ 19-Apr-2013 ✈ KMSN - KORD

Flight Track Log - Related Links

Times and Time Zones

All times are in EDT time to prevent confusion due to time zone crossing. See the ASQ6115 flight status page for this flight to view local times or setup timezone preferences in your user account.

Time Position Orientation Groundspeed Altitude Reporting Facility
EDT Latitude Longitude Course Direction KTS MPH feet Rate Location/Type
09:36PM 43.1631 -89.2392 110° East 240 276 6,900  Level Chicago Center
09:37PM 42.9383 -89.2486 164° South  Level FlightAware Approximate
09:37PM 43.0825 -89.2194 170° South 254 292 9,300  Level Chicago Center
09:38PM 42.8739 -89.2239 144° Southeast  Level FlightAware Approximate
09:38PM 42.9989 -89.2022 171° South 295 339 10,900  Level Chicago Center
09:39PM 42.8090 -89.1981 170° South  Level FlightAware Approximate
09:39PM 42.8989 -89.1800 171° South 354 407 11,000  Level Chicago Center
09:40PM 42.7421 -89.1800 163° South  Level FlightAware Approximate
09:40PM 42.7911 -89.1572 171° South 385 443 11,000  Level Chicago Center
09:41PM 42.6861 -89.1342 171° South 384 442 11,000  Level Chicago Center
09:42PM 42.5833 -89.1000 166° South 382 440 11,000  Level Chicago Center
09:43PM 42.5125 -88.9614 125° Southeast 398 458 11,000  Level Chicago Center
09:44PM 42.4728 -88.8269 112° Southeast 388 447 11,000 -480 Level Chicago Center
09:45PM 42.4322 -88.6925 112° Southeast 385 443 10,100 -540 Descending Chicago Center
09:46PM 42.3939 -88.5661 112° Southeast 372 428 10,000 -60 Descending Chicago Center
09:47PM 42.3556 -88.4350 112° Southeast 373 429 10,000  Level Chicago Center
09:48PM 42.2989 -88.3200 124° Southeast 368 423 10,000  Level Chicago Center
09:49PM 42.2344 -88.2119 129° Southeast 370 426 10,000 -360 Level Chicago Center
09:50PM 42.1733 -88.1214 132° Southeast 330 380 9,300 -1,440 Descending Chicago Center
09:51PM 42.1014 -88.0319 137° Southeast 297 342 7,100 -1,500 Descending Chicago Center
09:52PM 42.1000 -87.9667 92° East 293 337 7,000 -120 Descending Chicago TRACON
09:53PM 42.1000 -87.8667 90° East 295 339 7,000  Level Chicago TRACON
09:54PM 42.0833 -87.7667 103° East 286 329 7,000 -1,020 Level Chicago TRACON
09:55PM 42.0833 -87.6667 90° East 286 329 5,000 -1,440 Descending Chicago TRACON
09:56PM 42.0667 -87.5500 101° East 249 287 4,100 -540 Descending Chicago TRACON
09:57PM 42.0833 -87.4833 71° East 212 244 4,000 -60 Descending Chicago TRACON
09:58PM 42.0333 -87.4333 143° Southeast 211 243 4,000  Level Chicago TRACON
09:59PM 41.9833 -87.4500 194° South 179 206 4,000  Level Chicago TRACON
10:00PM 41.9833 -87.5000 270° West 138 159 4,000  Level Chicago TRACON
10:01PM 41.9833 -87.5333 270° West 153 176 4,000  Level Chicago TRACON
10:02PM 41.9833 -87.6000 270° West 147 169 4,000  Level Chicago TRACON
10:03PM 41.9833 -87.6500 270° West 149 171 4,000 -300 Level Chicago TRACON
10:04PM 41.9833 -87.7000 270° West 151 174 3,500 -660 Descending Chicago TRACON
10:05PM 41.9833 -87.7667 270° West 147 169 2,700 -900 Descending Chicago TRACON
10:06PM 41.9833 -87.8167 270° West 139 160 1,800 -900 Descending Chicago TRACON